sensor_id;sensor_type;location;lat;lon;timestamp;P1;durP1;ratioP1;P2;durP2;ratioP2
17854;SDS011;9053;53.358;6.382;2024-03-08T00:01:25;50.73;;;25.87;;
17854;SDS011;9053;53.358;6.382;2024-03-08T00:03:55;58.73;;;27.27;;
17854;SDS011;9053;53.358;6.382;2024-03-08T00:06:25;57.07;;;27.40;;
17854;SDS011;9053;53.358;6.382;2024-03-08T00:08:55;53.53;;;26.30;;
17854;SDS011;9053;53.358;6.382;2024-03-08T00:11:25;52.20;;;26.00;;
17854;SDS011;9053;53.358;6.382;2024-03-08T00:13:55;55.83;;;26.87;;
17854;SDS011;9053;53.358;6.382;2024-03-08T00:16:28;52.70;;;27.07;;
17854;SDS011;9053;53.358;6.382;2024-03-08T00:18:58;56.67;;;27.67;;
17854;SDS011;9053;53.358;6.382;2024-03-08T00:21:28;52.67;;;26.30;;
17854;SDS011;9053;53.358;6.382;2024-03-08T00:23:58;54.13;;;26.73;;
17854;SDS011;9053;53.358;6.382;2024-03-08T00:26:28;50.03;;;25.73;;
17854;SDS011;9053;53.358;6.382;2024-03-08T00:28:59;56.80;;;26.33;;
17854;SDS011;9053;53.358;6.382;2024-03-08T00:31:32;60.00;;;27.47;;
17854;SDS011;9053;53.358;6.382;2024-03-08T00:34:02;53.83;;;26.37;;
17854;SDS011;9053;53.358;6.382;2024-03-08T00:36:33;60.90;;;28.83;;
17854;SDS011;9053;53.358;6.382;2024-03-08T00:39:03;58.33;;;27.43;;
17854;SDS011;9053;53.358;6.382;2024-03-08T00:41:34;53.10;;;27.73;;
17854;SDS011;9053;53.358;6.382;2024-03-08T00:44:04;57.43;;;26.90;;
17854;SDS011;9053;53.358;6.382;2024-03-08T00:46:37;62.27;;;28.63;;
17854;SDS011;9053;53.358;6.382;2024-03-08T00:49:07;55.00;;;28.33;;
17854;SDS011;9053;53.358;6.382;2024-03-08T00:51:40;53.93;;;26.50;;
17854;SDS011;9053;53.358;6.382;2024-03-08T00:54:10;60.77;;;27.33;;
17854;SDS011;9053;53.358;6.382;2024-03-08T00:56:40;55.43;;;27.37;;
17854;SDS011;9053;53.358;6.382;2024-03-08T00:59:12;52.53;;;26.17;;
17854;SDS011;9053;53.358;6.382;2024-03-08T01:01:45;56.20;;;28.20;;
17854;SDS011;9053;53.358;6.382;2024-03-08T01:04:15;52.10;;;27.33;;
17854;SDS011;9053;53.358;6.382;2024-03-08T01:06:45;53.73;;;27.17;;
17854;SDS011;9053;53.358;6.382;2024-03-08T01:09:15;53.97;;;26.73;;
17854;SDS011;9053;53.358;6.382;2024-03-08T01:11:47;55.87;;;28.03;;
17854;SDS011;9053;53.358;6.382;2024-03-08T01:14:17;60.47;;;28.37;;
17854;SDS011;9053;53.358;6.382;2024-03-08T01:16:51;62.90;;;28.40;;
17854;SDS011;9053;53.358;6.382;2024-03-08T01:19:21;62.87;;;28.30;;
17854;SDS011;9053;53.358;6.382;2024-03-08T01:21:51;56.40;;;26.73;;
17854;SDS011;9053;53.358;6.382;2024-03-08T01:24:22;59.23;;;28.97;;
17854;SDS011;9053;53.358;6.382;2024-03-08T01:26:52;58.67;;;26.77;;
17854;SDS011;9053;53.358;6.382;2024-03-08T01:29:22;54.23;;;26.20;;
17854;SDS011;9053;53.358;6.382;2024-03-08T01:31:55;59.43;;;28.00;;
17854;SDS011;9053;53.358;6.382;2024-03-08T01:34:28;54.17;;;27.20;;
17854;SDS011;9053;53.358;6.382;2024-03-08T01:36:59;59.37;;;27.97;;
17854;SDS011;9053;53.358;6.382;2024-03-08T01:39:29;61.10;;;27.40;;
17854;SDS011;9053;53.358;6.382;2024-03-08T01:41:59;58.13;;;27.30;;
17854;SDS011;9053;53.358;6.382;2024-03-08T01:44:31;57.17;;;27.50;;
17854;SDS011;9053;53.358;6.382;2024-03-08T01:47:03;55.40;;;26.60;;
17854;SDS011;9053;53.358;6.382;2024-03-08T01:49:33;52.10;;;25.93;;
17854;SDS011;9053;53.358;6.382;2024-03-08T01:52:04;54.57;;;26.77;;
17854;SDS011;9053;53.358;6.382;2024-03-08T01:54:35;53.83;;;26.67;;
17854;SDS011;9053;53.358;6.382;2024-03-08T01:57:07;51.27;;;26.33;;
17854;SDS011;9053;53.358;6.382;2024-03-08T01:59:37;57.13;;;26.17;;
17854;SDS011;9053;53.358;6.382;2024-03-08T02:02:11;54.03;;;26.83;;
17854;SDS011;9053;53.358;6.382;2024-03-08T02:04:43;51.77;;;25.90;;
17854;SDS011;9053;53.358;6.382;2024-03-08T02:07:14;50.97;;;25.43;;
17854;SDS011;9053;53.358;6.382;2024-03-08T02:09:44;48.80;;;25.73;;
17854;SDS011;9053;53.358;6.382;2024-03-08T02:12:14;50.70;;;25.70;;
17854;SDS011;9053;53.358;6.382;2024-03-08T02:14:47;53.23;;;25.47;;
17854;SDS011;9053;53.358;6.382;2024-03-08T02:17:21;49.80;;;25.77;;
17854;SDS011;9053;53.358;6.382;2024-03-08T02:19:51;48.27;;;25.73;;
17854;SDS011;9053;53.358;6.382;2024-03-08T02:22:27;48.23;;;23.43;;
17854;SDS011;9053;53.358;6.382;2024-03-08T02:24:58;49.27;;;24.67;;
17854;SDS011;9053;53.358;6.382;2024-03-08T02:27:29;44.93;;;23.50;;
17854;SDS011;9053;53.358;6.382;2024-03-08T02:29:59;46.60;;;24.07;;
17854;SDS011;9053;53.358;6.382;2024-03-08T02:32:29;50.20;;;24.53;;
17854;SDS011;9053;53.358;6.382;2024-03-08T02:34:59;45.90;;;23.63;;
17854;SDS011;9053;53.358;6.382;2024-03-08T02:37:32;51.33;;;24.83;;
17854;SDS011;9053;53.358;6.382;2024-03-08T02:40:03;48.10;;;23.70;;
17854;SDS011;9053;53.358;6.382;2024-03-08T02:42:34;42.30;;;23.07;;
17854;SDS011;9053;53.358;6.382;2024-03-08T02:45:04;47.00;;;23.10;;
17854;SDS011;9053;53.358;6.382;2024-03-08T02:47:36;45.70;;;22.90;;
17854;SDS011;9053;53.358;6.382;2024-03-08T02:50:07;45.10;;;22.67;;
17854;SDS011;9053;53.358;6.382;2024-03-08T02:52:41;45.33;;;22.73;;
17854;SDS011;9053;53.358;6.382;2024-03-08T02:55:13;45.33;;;23.87;;
17854;SDS011;9053;53.358;6.382;2024-03-08T02:57:44;47.97;;;24.43;;
17854;SDS011;9053;53.358;6.382;2024-03-08T03:00:14;47.43;;;24.27;;
17854;SDS011;9053;53.358;6.382;2024-03-08T03:02:45;36.93;;;20.63;;
17854;SDS011;9053;53.358;6.382;2024-03-08T03:05:16;41.00;;;21.30;;
17854;SDS011;9053;53.358;6.382;2024-03-08T03:07:49;43.33;;;21.93;;
17854;SDS011;9053;53.358;6.382;2024-03-08T03:10:19;43.97;;;22.97;;
17854;SDS011;9053;53.358;6.382;2024-03-08T03:12:49;45.53;;;22.60;;
17854;SDS011;9053;53.358;6.382;2024-03-08T03:15:19;43.13;;;21.17;;
17854;SDS011;9053;53.358;6.382;2024-03-08T03:17:53;44.60;;;21.60;;
17854;SDS011;9053;53.358;6.382;2024-03-08T03:20:23;46.37;;;22.13;;
17854;SDS011;9053;53.358;6.382;2024-03-08T03:23:02;44.97;;;22.47;;
17854;SDS011;9053;53.358;6.382;2024-03-08T03:25:34;41.73;;;21.30;;
17854;SDS011;9053;53.358;6.382;2024-03-08T03:28:07;47.17;;;21.20;;
17854;SDS011;9053;53.358;6.382;2024-03-08T03:30:41;39.10;;;21.13;;
17854;SDS011;9053;53.358;6.382;2024-03-08T03:33:13;41.63;;;20.93;;
17854;SDS011;9053;53.358;6.382;2024-03-08T03:35:44;45.27;;;21.23;;
17854;SDS011;9053;53.358;6.382;2024-03-08T03:38:17;42.90;;;21.27;;
17854;SDS011;9053;53.358;6.382;2024-03-08T03:40:47;37.93;;;20.73;;
17854;SDS011;9053;53.358;6.382;2024-03-08T03:43:19;41.77;;;21.37;;
17854;SDS011;9053;53.358;6.382;2024-03-08T03:45:49;43.00;;;21.10;;
17854;SDS011;9053;53.358;6.382;2024-03-08T03:48:21;41.53;;;21.20;;
17854;SDS011;9053;53.358;6.382;2024-03-08T03:50:53;42.03;;;20.10;;
17854;SDS011;9053;53.358;6.382;2024-03-08T03:53:27;40.60;;;20.77;;
17854;SDS011;9053;53.358;6.382;2024-03-08T03:55:57;38.37;;;20.83;;
17854;SDS011;9053;53.358;6.382;2024-03-08T03:58:27;47.23;;;21.60;;
17854;SDS011;9053;53.358;6.382;2024-03-08T04:00:57;40.40;;;21.27;;
17854;SDS011;9053;53.358;6.382;2024-03-08T04:03:28;41.57;;;20.37;;
17854;SDS011;9053;53.358;6.382;2024-03-08T04:05:58;39.47;;;20.07;;
17854;SDS011;9053;53.358;6.382;2024-03-08T04:08:31;41.77;;;20.10;;
17854;SDS011;9053;53.358;6.382;2024-03-08T04:11:02;40.47;;;20.43;;
17854;SDS011;9053;53.358;6.382;2024-03-08T04:13:32;38.80;;;19.87;;
17854;SDS011;9053;53.358;6.382;2024-03-08T04:16:03;45.13;;;21.13;;
17854;SDS011;9053;53.358;6.382;2024-03-08T04:18:35;40.00;;;20.37;;
17854;SDS011;9053;53.358;6.382;2024-03-08T04:21:05;40.00;;;20.03;;
17854;SDS011;9053;53.358;6.382;2024-03-08T04:23:39;39.07;;;19.07;;
17854;SDS011;9053;53.358;6.382;2024-03-08T04:26:11;39.97;;;20.23;;
17854;SDS011;9053;53.358;6.382;2024-03-08T04:28:45;40.80;;;19.43;;
17854;SDS011;9053;53.358;6.382;2024-03-08T04:31:15;38.03;;;20.17;;
17854;SDS011;9053;53.358;6.382;2024-03-08T04:33:45;38.50;;;19.67;;
17854;SDS011;9053;53.358;6.382;2024-03-08T04:36:15;39.63;;;20.03;;
17854;SDS011;9053;53.358;6.382;2024-03-08T04:38:49;34.17;;;19.53;;
17854;SDS011;9053;53.358;6.382;2024-03-08T04:41:19;37.63;;;20.50;;
17854;SDS011;9053;53.358;6.382;2024-03-08T04:43:50;37.50;;;19.30;;
17854;SDS011;9053;53.358;6.382;2024-03-08T04:46:20;39.00;;;19.97;;
17854;SDS011;9053;53.358;6.382;2024-03-08T04:48:50;35.53;;;19.50;;
17854;SDS011;9053;53.358;6.382;2024-03-08T04:51:22;40.47;;;18.90;;
17854;SDS011;9053;53.358;6.382;2024-03-08T04:53:54;39.10;;;19.53;;
17854;SDS011;9053;53.358;6.382;2024-03-08T04:56:26;38.73;;;19.60;;
17854;SDS011;9053;53.358;6.382;2024-03-08T04:58:56;37.17;;;20.00;;
17854;SDS011;9053;53.358;6.382;2024-03-08T05:01:26;36.60;;;19.33;;
17854;SDS011;9053;53.358;6.382;2024-03-08T05:03:56;39.30;;;19.90;;
17854;SDS011;9053;53.358;6.382;2024-03-08T05:06:31;38.47;;;19.90;;
17854;SDS011;9053;53.358;6.382;2024-03-08T05:09:05;36.27;;;18.20;;
17854;SDS011;9053;53.358;6.382;2024-03-08T05:11:40;37.43;;;19.17;;
17854;SDS011;9053;53.358;6.382;2024-03-08T05:14:13;34.27;;;19.37;;
17854;SDS011;9053;53.358;6.382;2024-03-08T05:16:47;38.40;;;19.33;;
17854;SDS011;9053;53.358;6.382;2024-03-08T05:19:17;39.00;;;19.67;;
17854;SDS011;9053;53.358;6.382;2024-03-08T05:21:49;37.37;;;19.27;;
17854;SDS011;9053;53.358;6.382;2024-03-08T05:24:22;35.27;;;18.87;;
17854;SDS011;9053;53.358;6.382;2024-03-08T05:26:52;34.03;;;18.77;;
17854;SDS011;9053;53.358;6.382;2024-03-08T05:29:22;36.87;;;19.50;;
17854;SDS011;9053;53.358;6.382;2024-03-08T05:31:52;37.70;;;18.70;;
17854;SDS011;9053;53.358;6.382;2024-03-08T05:34:23;35.93;;;18.73;;
17854;SDS011;9053;53.358;6.382;2024-03-08T05:36:55;39.57;;;19.53;;
17854;SDS011;9053;53.358;6.382;2024-03-08T05:39:29;38.93;;;19.57;;
17854;SDS011;9053;53.358;6.382;2024-03-08T05:41:59;34.93;;;18.67;;
17854;SDS011;9053;53.358;6.382;2024-03-08T05:44:29;35.40;;;19.17;;
17854;SDS011;9053;53.358;6.382;2024-03-08T05:47:00;39.70;;;18.47;;
17854;SDS011;9053;53.358;6.382;2024-03-08T05:49:30;40.13;;;19.37;;
17854;SDS011;9053;53.358;6.382;2024-03-08T05:52:03;38.70;;;19.73;;
17854;SDS011;9053;53.358;6.382;2024-03-08T05:54:35;37.67;;;19.33;;
17854;SDS011;9053;53.358;6.382;2024-03-08T05:57:07;36.57;;;19.23;;
17854;SDS011;9053;53.358;6.382;2024-03-08T05:59:37;34.57;;;18.17;;
17854;SDS011;9053;53.358;6.382;2024-03-08T06:02:07;32.87;;;18.90;;
17854;SDS011;9053;53.358;6.382;2024-03-08T06:04:38;37.80;;;19.53;;
17854;SDS011;9053;53.358;6.382;2024-03-08T06:07:09;34.37;;;19.73;;
17854;SDS011;9053;53.358;6.382;2024-03-08T06:09:41;36.57;;;18.93;;
17854;SDS011;9053;53.358;6.382;2024-03-08T06:12:12;37.03;;;19.53;;
17854;SDS011;9053;53.358;6.382;2024-03-08T06:14:45;36.53;;;18.93;;
17854;SDS011;9053;53.358;6.382;2024-03-08T06:17:15;37.53;;;18.97;;
17854;SDS011;9053;53.358;6.382;2024-03-08T06:19:45;40.97;;;20.03;;
17854;SDS011;9053;53.358;6.382;2024-03-08T06:22:16;41.93;;;19.40;;
17854;SDS011;9053;53.358;6.382;2024-03-08T06:24:50;39.90;;;19.00;;
17854;SDS011;9053;53.358;6.382;2024-03-08T06:27:22;34.77;;;19.23;;
17854;SDS011;9053;53.358;6.382;2024-03-08T06:29:52;35.57;;;19.10;;
17854;SDS011;9053;53.358;6.382;2024-03-08T06:32:23;39.23;;;19.60;;
17854;SDS011;9053;53.358;6.382;2024-03-08T06:34:53;36.90;;;18.43;;
17854;SDS011;9053;53.358;6.382;2024-03-08T06:37:23;39.00;;;18.50;;
17854;SDS011;9053;53.358;6.382;2024-03-08T06:39:55;35.90;;;18.97;;
17854;SDS011;9053;53.358;6.382;2024-03-08T06:42:25;38.87;;;18.03;;
17854;SDS011;9053;53.358;6.382;2024-03-08T06:44:56;40.73;;;19.63;;
17854;SDS011;9053;53.358;6.382;2024-03-08T06:47:32;37.90;;;18.50;;
17854;SDS011;9053;53.358;6.382;2024-03-08T06:50:02;38.00;;;20.40;;
17854;SDS011;9053;53.358;6.382;2024-03-08T06:52:34;35.70;;;18.67;;
17854;SDS011;9053;53.358;6.382;2024-03-08T06:55:08;37.77;;;19.83;;
17854;SDS011;9053;53.358;6.382;2024-03-08T06:57:39;37.70;;;19.70;;
17854;SDS011;9053;53.358;6.382;2024-03-08T07:00:10;36.23;;;19.07;;
17854;SDS011;9053;53.358;6.382;2024-03-08T07:02:45;34.90;;;18.60;;
17854;SDS011;9053;53.358;6.382;2024-03-08T07:05:15;38.20;;;19.07;;
17854;SDS011;9053;53.358;6.382;2024-03-08T07:07:46;36.27;;;17.87;;
17854;SDS011;9053;53.358;6.382;2024-03-08T07:10:20;35.30;;;18.77;;
17854;SDS011;9053;53.358;6.382;2024-03-08T07:12:51;35.00;;;18.50;;
17854;SDS011;9053;53.358;6.382;2024-03-08T07:15:22;35.43;;;18.13;;
17854;SDS011;9053;53.358;6.382;2024-03-08T07:17:52;34.97;;;18.53;;
17854;SDS011;9053;53.358;6.382;2024-03-08T07:20:22;37.20;;;18.73;;
17854;SDS011;9053;53.358;6.382;2024-03-08T07:22:52;36.63;;;19.23;;
17854;SDS011;9053;53.358;6.382;2024-03-08T07:25:25;36.43;;;18.73;;
17854;SDS011;9053;53.358;6.382;2024-03-08T07:27:56;38.10;;;19.30;;
17854;SDS011;9053;53.358;6.382;2024-03-08T07:30:27;32.47;;;18.07;;
17854;SDS011;9053;53.358;6.382;2024-03-08T07:33:21;32.90;;;17.70;;
17854;SDS011;9053;53.358;6.382;2024-03-08T07:35:52;36.70;;;17.73;;
17854;SDS011;9053;53.358;6.382;2024-03-08T07:38:23;34.80;;;18.10;;
17854;SDS011;9053;53.358;6.382;2024-03-08T07:40:55;34.80;;;18.53;;
17854;SDS011;9053;53.358;6.382;2024-03-08T07:43:27;34.07;;;19.10;;
17854;SDS011;9053;53.358;6.382;2024-03-08T07:45:58;37.23;;;19.80;;
17854;SDS011;9053;53.358;6.382;2024-03-08T07:48:28;35.43;;;18.50;;
17854;SDS011;9053;53.358;6.382;2024-03-08T07:51:01;35.67;;;18.40;;
17854;SDS011;9053;53.358;6.382;2024-03-08T07:53:32;33.77;;;18.03;;
17854;SDS011;9053;53.358;6.382;2024-03-08T07:56:05;34.13;;;18.67;;
17854;SDS011;9053;53.358;6.382;2024-03-08T07:58:38;34.57;;;18.33;;
17854;SDS011;9053;53.358;6.382;2024-03-08T08:01:15;33.60;;;17.63;;
17854;SDS011;9053;53.358;6.382;2024-03-08T08:03:45;33.83;;;18.60;;
17854;SDS011;9053;53.358;6.382;2024-03-08T08:06:16;37.03;;;19.57;;
17854;SDS011;9053;53.358;6.382;2024-03-08T08:08:46;32.93;;;18.30;;
17854;SDS011;9053;53.358;6.382;2024-03-08T08:11:19;35.00;;;19.07;;
17854;SDS011;9053;53.358;6.382;2024-03-08T08:13:49;33.57;;;18.13;;
17854;SDS011;9053;53.358;6.382;2024-03-08T08:16:22;35.17;;;19.37;;
17854;SDS011;9053;53.358;6.382;2024-03-08T08:18:52;35.03;;;18.73;;
17854;SDS011;9053;53.358;6.382;2024-03-08T08:21:26;34.70;;;18.53;;
17854;SDS011;9053;53.358;6.382;2024-03-08T08:23:56;34.40;;;19.30;;
17854;SDS011;9053;53.358;6.382;2024-03-08T08:26:29;31.20;;;18.23;;
17854;SDS011;9053;53.358;6.382;2024-03-08T08:29:05;34.13;;;19.07;;
17854;SDS011;9053;53.358;6.382;2024-03-08T08:31:35;35.20;;;19.33;;
17854;SDS011;9053;53.358;6.382;2024-03-08T08:34:05;32.80;;;19.07;;
17854;SDS011;9053;53.358;6.382;2024-03-08T08:36:38;32.67;;;19.50;;
17854;SDS011;9053;53.358;6.382;2024-03-08T08:39:08;35.50;;;19.37;;
17854;SDS011;9053;53.358;6.382;2024-03-08T08:41:43;34.20;;;18.50;;
17854;SDS011;9053;53.358;6.382;2024-03-08T08:44:13;31.13;;;17.93;;
17854;SDS011;9053;53.358;6.382;2024-03-08T08:46:45;37.17;;;18.87;;
17854;SDS011;9053;53.358;6.382;2024-03-08T08:49:18;32.67;;;18.67;;
17854;SDS011;9053;53.358;6.382;2024-03-08T08:51:50;32.50;;;18.63;;
17854;SDS011;9053;53.358;6.382;2024-03-08T08:54:24;33.93;;;19.83;;
17854;SDS011;9053;53.358;6.382;2024-03-08T08:56:57;32.30;;;18.53;;
17854;SDS011;9053;53.358;6.382;2024-03-08T08:59:34;31.20;;;17.60;;
17854;SDS011;9053;53.358;6.382;2024-03-08T09:02:06;31.03;;;18.17;;
17854;SDS011;9053;53.358;6.382;2024-03-08T09:04:43;32.83;;;18.50;;
17854;SDS011;9053;53.358;6.382;2024-03-08T09:07:14;32.43;;;18.70;;
17854;SDS011;9053;53.358;6.382;2024-03-08T09:09:45;31.80;;;18.80;;
17854;SDS011;9053;53.358;6.382;2024-03-08T09:12:26;27.47;;;16.97;;
17854;SDS011;9053;53.358;6.382;2024-03-08T09:14:56;30.03;;;18.20;;
17854;SDS011;9053;53.358;6.382;2024-03-08T09:17:26;32.57;;;18.67;;
17854;SDS011;9053;53.358;6.382;2024-03-08T09:19:56;32.10;;;18.40;;
17854;SDS011;9053;53.358;6.382;2024-03-08T09:22:27;34.30;;;17.93;;
17854;SDS011;9053;53.358;6.382;2024-03-08T09:24:57;30.23;;;17.83;;
17854;SDS011;9053;53.358;6.382;2024-03-08T09:27:30;30.73;;;17.80;;
17854;SDS011;9053;53.358;6.382;2024-03-08T09:30:05;28.27;;;17.07;;
17854;SDS011;9053;53.358;6.382;2024-03-08T09:32:40;30.37;;;18.47;;
17854;SDS011;9053;53.358;6.382;2024-03-08T09:35:10;31.47;;;18.77;;
17854;SDS011;9053;53.358;6.382;2024-03-08T09:37:42;28.60;;;18.07;;
17854;SDS011;9053;53.358;6.382;2024-03-08T09:40:14;36.63;;;19.07;;
17854;SDS011;9053;53.358;6.382;2024-03-08T09:42:49;33.37;;;18.47;;
17854;SDS011;9053;53.358;6.382;2024-03-08T09:45:20;33.80;;;18.30;;
17854;SDS011;9053;53.358;6.382;2024-03-08T09:47:51;34.47;;;19.67;;
17854;SDS011;9053;53.358;6.382;2024-03-08T09:50:22;31.60;;;18.77;;
17854;SDS011;9053;53.358;6.382;2024-03-08T09:52:55;31.47;;;19.10;;
17854;SDS011;9053;53.358;6.382;2024-03-08T09:55:32;35.43;;;19.33;;
17854;SDS011;9053;53.358;6.382;2024-03-08T09:58:06;36.10;;;19.73;;
17854;SDS011;9053;53.358;6.382;2024-03-08T10:01:03;30.93;;;19.47;;
17854;SDS011;9053;53.358;6.382;2024-03-08T10:03:34;36.80;;;20.13;;
17854;SDS011;9053;53.358;6.382;2024-03-08T10:06:05;36.53;;;20.03;;
17854;SDS011;9053;53.358;6.382;2024-03-08T10:08:36;33.50;;;20.00;;
17854;SDS011;9053;53.358;6.382;2024-03-08T10:11:09;33.17;;;19.97;;
17854;SDS011;9053;53.358;6.382;2024-03-08T10:13:43;34.03;;;19.77;;
17854;SDS011;9053;53.358;6.382;2024-03-08T10:16:14;34.93;;;19.80;;
17854;SDS011;9053;53.358;6.382;2024-03-08T10:18:45;33.90;;;19.30;;
17854;SDS011;9053;53.358;6.382;2024-03-08T10:21:15;32.60;;;19.20;;
17854;SDS011;9053;53.358;6.382;2024-03-08T10:23:45;36.87;;;20.00;;
17854;SDS011;9053;53.358;6.382;2024-03-08T10:26:16;32.07;;;19.07;;
17854;SDS011;9053;53.358;6.382;2024-03-08T10:28:51;35.80;;;19.60;;
17854;SDS011;9053;53.358;6.382;2024-03-08T10:31:22;35.93;;;19.83;;
17854;SDS011;9053;53.358;6.382;2024-03-08T10:33:54;33.77;;;19.70;;
17854;SDS011;9053;53.358;6.382;2024-03-08T10:36:24;35.07;;;20.07;;
17854;SDS011;9053;53.358;6.382;2024-03-08T10:38:54;35.70;;;20.47;;
17854;SDS011;9053;53.358;6.382;2024-03-08T10:41:30;35.27;;;20.13;;
17854;SDS011;9053;53.358;6.382;2024-03-08T10:44:10;37.80;;;20.93;;
17854;SDS011;9053;53.358;6.382;2024-03-08T10:46:49;34.03;;;19.60;;
17854;SDS011;9053;53.358;6.382;2024-03-08T10:49:37;34.13;;;19.57;;
17854;SDS011;9053;53.358;6.382;2024-03-08T10:52:09;32.60;;;19.70;;
17854;SDS011;9053;53.358;6.382;2024-03-08T10:54:43;34.67;;;20.33;;
17854;SDS011;9053;53.358;6.382;2024-03-08T10:57:17;33.30;;;19.97;;
17854;SDS011;9053;53.358;6.382;2024-03-08T10:59:53;35.90;;;21.17;;
17854;SDS011;9053;53.358;6.382;2024-03-08T11:02:25;34.50;;;19.77;;
17854;SDS011;9053;53.358;6.382;2024-03-08T11:04:56;33.87;;;20.20;;
17854;SDS011;9053;53.358;6.382;2024-03-08T11:07:28;30.03;;;19.50;;
17854;SDS011;9053;53.358;6.382;2024-03-08T11:09:59;32.17;;;20.10;;
17854;SDS011;9053;53.358;6.382;2024-03-08T11:12:35;35.10;;;20.70;;
17854;SDS011;9053;53.358;6.382;2024-03-08T11:15:12;34.50;;;21.00;;
17854;SDS011;9053;53.358;6.382;2024-03-08T11:17:46;35.00;;;20.27;;
17854;SDS011;9053;53.358;6.382;2024-03-08T11:20:18;37.90;;;20.27;;
17854;SDS011;9053;53.358;6.382;2024-03-08T11:22:48;36.83;;;20.63;;
17854;SDS011;9053;53.358;6.382;2024-03-08T11:25:33;33.80;;;20.70;;
17854;SDS011;9053;53.358;6.382;2024-03-08T11:28:14;32.93;;;20.47;;
17854;SDS011;9053;53.358;6.382;2024-03-08T11:34:01;38.63;;;22.07;;
17854;SDS011;9053;53.358;6.382;2024-03-08T11:36:31;35.07;;;21.43;;
17854;SDS011;9053;53.358;6.382;2024-03-08T11:39:06;34.57;;;19.60;;
17854;SDS011;9053;53.358;6.382;2024-03-08T11:41:41;33.90;;;20.97;;
17854;SDS011;9053;53.358;6.382;2024-03-08T11:44:13;34.37;;;21.27;;
17854;SDS011;9053;53.358;6.382;2024-03-08T11:46:46;35.90;;;20.97;;
17854;SDS011;9053;53.358;6.382;2024-03-08T11:49:16;32.97;;;20.33;;
17854;SDS011;9053;53.358;6.382;2024-03-08T11:51:51;31.57;;;20.20;;
17854;SDS011;9053;53.358;6.382;2024-03-08T11:54:22;36.50;;;21.77;;
17854;SDS011;9053;53.358;6.382;2024-03-08T11:56:52;35.00;;;20.13;;
17854;SDS011;9053;53.358;6.382;2024-03-08T11:59:27;37.37;;;21.60;;
17854;SDS011;9053;53.358;6.382;2024-03-08T12:02:06;34.27;;;20.30;;
17854;SDS011;9053;53.358;6.382;2024-03-08T12:04:37;33.17;;;19.97;;
17854;SDS011;9053;53.358;6.382;2024-03-08T12:07:09;33.17;;;20.53;;
17854;SDS011;9053;53.358;6.382;2024-03-08T12:09:40;37.43;;;21.17;;
17854;SDS011;9053;53.358;6.382;2024-03-08T12:12:14;31.20;;;19.73;;
17854;SDS011;9053;53.358;6.382;2024-03-08T12:14:45;38.53;;;22.37;;
17854;SDS011;9053;53.358;6.382;2024-03-08T12:17:18;34.27;;;20.57;;
17854;SDS011;9053;53.358;6.382;2024-03-08T12:19:48;32.53;;;20.80;;
17854;SDS011;9053;53.358;6.382;2024-03-08T12:22:24;33.87;;;20.87;;
17854;SDS011;9053;53.358;6.382;2024-03-08T12:25:03;34.47;;;21.57;;
17854;SDS011;9053;53.358;6.382;2024-03-08T12:27:37;32.93;;;20.50;;
17854;SDS011;9053;53.358;6.382;2024-03-08T12:30:20;34.10;;;21.13;;
17854;SDS011;9053;53.358;6.382;2024-03-08T12:32:57;34.20;;;20.83;;
17854;SDS011;9053;53.358;6.382;2024-03-08T12:35:29;35.10;;;20.50;;
17854;SDS011;9053;53.358;6.382;2024-03-08T12:38:00;31.43;;;20.23;;
17854;SDS011;9053;53.358;6.382;2024-03-08T12:40:31;31.00;;;19.17;;
17854;SDS011;9053;53.358;6.382;2024-03-08T12:43:07;32.97;;;21.03;;
17854;SDS011;9053;53.358;6.382;2024-03-08T12:45:38;35.17;;;21.47;;
17854;SDS011;9053;53.358;6.382;2024-03-08T12:48:14;32.43;;;20.10;;
17854;SDS011;9053;53.358;6.382;2024-03-08T12:50:45;34.17;;;20.63;;
17854;SDS011;9053;53.358;6.382;2024-03-08T12:53:17;30.87;;;19.50;;
17854;SDS011;9053;53.358;6.382;2024-03-08T12:55:50;35.27;;;21.23;;
17854;SDS011;9053;53.358;6.382;2024-03-08T12:58:23;32.23;;;20.33;;
17854;SDS011;9053;53.358;6.382;2024-03-08T13:00:54;30.30;;;19.30;;
17854;SDS011;9053;53.358;6.382;2024-03-08T13:03:27;34.23;;;20.83;;
17854;SDS011;9053;53.358;6.382;2024-03-08T13:05:58;31.93;;;20.13;;
17854;SDS011;9053;53.358;6.382;2024-03-08T13:08:28;32.83;;;20.90;;
17854;SDS011;9053;53.358;6.382;2024-03-08T13:11:02;31.93;;;19.73;;
17854;SDS011;9053;53.358;6.382;2024-03-08T13:13:34;30.07;;;19.23;;
17854;SDS011;9053;53.358;6.382;2024-03-08T13:16:07;30.23;;;19.20;;
17854;SDS011;9053;53.358;6.382;2024-03-08T13:18:44;30.57;;;19.83;;
17854;SDS011;9053;53.358;6.382;2024-03-08T13:21:19;32.50;;;19.53;;
17854;SDS011;9053;53.358;6.382;2024-03-08T13:23:51;29.17;;;18.60;;
17854;SDS011;9053;53.358;6.382;2024-03-08T13:26:21;27.60;;;17.53;;
17854;SDS011;9053;53.358;6.382;2024-03-08T13:28:52;27.43;;;18.57;;
17854;SDS011;9053;53.358;6.382;2024-03-08T13:31:27;25.40;;;17.20;;
17854;SDS011;9053;53.358;6.382;2024-03-08T13:34:01;28.07;;;18.57;;
17854;SDS011;9053;53.358;6.382;2024-03-08T13:36:32;26.63;;;18.23;;
17854;SDS011;9053;53.358;6.382;2024-03-08T13:39:06;29.03;;;18.97;;
17854;SDS011;9053;53.358;6.382;2024-03-08T13:41:42;27.50;;;17.13;;
17854;SDS011;9053;53.358;6.382;2024-03-08T13:44:12;28.37;;;18.57;;
17854;SDS011;9053;53.358;6.382;2024-03-08T13:46:43;26.93;;;16.97;;
17854;SDS011;9053;53.358;6.382;2024-03-08T13:49:22;28.60;;;18.43;;
17854;SDS011;9053;53.358;6.382;2024-03-08T13:51:54;26.63;;;17.07;;
17854;SDS011;9053;53.358;6.382;2024-03-08T13:54:25;25.70;;;17.37;;
17854;SDS011;9053;53.358;6.382;2024-03-08T13:56:58;24.57;;;16.70;;
17854;SDS011;9053;53.358;6.382;2024-03-08T13:59:30;25.50;;;16.63;;
17854;SDS011;9053;53.358;6.382;2024-03-08T14:02:01;27.30;;;17.43;;
17854;SDS011;9053;53.358;6.382;2024-03-08T14:04:35;27.83;;;17.23;;
17854;SDS011;9053;53.358;6.382;2024-03-08T14:07:07;26.13;;;17.57;;
17854;SDS011;9053;53.358;6.382;2024-03-08T14:09:40;25.93;;;17.23;;
17854;SDS011;9053;53.358;6.382;2024-03-08T14:12:10;26.87;;;16.90;;
17854;SDS011;9053;53.358;6.382;2024-03-08T14:14:42;28.10;;;16.80;;
17854;SDS011;9053;53.358;6.382;2024-03-08T14:17:14;24.47;;;16.77;;
17854;SDS011;9053;53.358;6.382;2024-03-08T14:19:47;26.47;;;16.57;;
17854;SDS011;9053;53.358;6.382;2024-03-08T14:22:17;26.80;;;17.17;;
17854;SDS011;9053;53.358;6.382;2024-03-08T14:24:48;26.83;;;16.07;;
17854;SDS011;9053;53.358;6.382;2024-03-08T14:27:18;22.67;;;15.30;;
17854;SDS011;9053;53.358;6.382;2024-03-08T14:29:49;26.57;;;16.73;;
17854;SDS011;9053;53.358;6.382;2024-03-08T14:32:21;23.97;;;15.90;;
17854;SDS011;9053;53.358;6.382;2024-03-08T14:34:54;28.33;;;16.67;;
17854;SDS011;9053;53.358;6.382;2024-03-08T14:37:25;24.03;;;15.57;;
17854;SDS011;9053;53.358;6.382;2024-03-08T14:39:56;23.40;;;16.20;;
17854;SDS011;9053;53.358;6.382;2024-03-08T14:42:26;25.17;;;16.30;;
17854;SDS011;9053;53.358;6.382;2024-03-08T14:44:56;24.87;;;15.27;;
17854;SDS011;9053;53.358;6.382;2024-03-08T14:47:26;25.50;;;16.37;;
17854;SDS011;9053;53.358;6.382;2024-03-08T14:50:02;23.43;;;15.80;;
17854;SDS011;9053;53.358;6.382;2024-03-08T14:52:34;25.70;;;17.07;;
17854;SDS011;9053;53.358;6.382;2024-03-08T14:55:07;24.97;;;17.30;;
17854;SDS011;9053;53.358;6.382;2024-03-08T14:57:41;26.87;;;16.97;;
17854;SDS011;9053;53.358;6.382;2024-03-08T15:00:12;24.57;;;16.13;;
17854;SDS011;9053;53.358;6.382;2024-03-08T15:02:54;27.17;;;17.20;;
17854;SDS011;9053;53.358;6.382;2024-03-08T15:05:26;27.47;;;16.93;;